Terminal Aerodrome Forecast
Issued by NWS

Home | Current Version | Previous Version | Text Only | Print | Product List | Glossary On
Versions: 1 2 3 4 5 6 7 8 9 10 11 12 13 14 15 16 17 18 19 20 21 22 23 24 25 26 27 28 29 30 31 32 33 34 35 36 37 38
000
FTUS43 KMKX 261121
TAFENW
TAF
KENW 261121Z 2612/2712 21005KT P6SM BKN035
     FM261700 19008KT P6SM SCT040 BKN100
     FM270400 23004KT 5SM BR SCT040 BKN100
     FM271100 25004KT 3SM BR VCSH SCT040 BKN080=

USA.gov is the U.S. government's official web portal to all federal, state and local government web resources and services.